createdAt,value
2022-08-28T00:01:22.917Z,98520.03
2022-08-28T00:03:25.100Z,98508.38
2022-08-28T00:05:30.291Z,98511.16
2022-08-28T00:07:31.991Z,98507.09
2022-08-28T00:09:33.793Z,98514.97
2022-08-28T00:11:37.628Z,98512.19
2022-08-28T00:13:39.268Z,98517.28
2022-08-28T00:15:40.971Z,98514.50
2022-08-28T00:17:42.650Z,98517.66
2022-08-28T00:19:44.480Z,98520.44
2022-08-28T00:21:46.504Z,98507.19
2022-08-28T00:23:48.393Z,98513.88
2022-08-28T00:25:49.976Z,98515.84
2022-08-28T00:27:52.982Z,98519.47
2022-08-28T00:29:54.779Z,98514.25
2022-08-28T00:31:56.772Z,98516.19
2022-08-28T00:33:58.889Z,98511.78
2022-08-28T00:36:03.505Z,98510.16
2022-08-28T00:38:06.007Z,98506.91
2022-08-28T00:40:09.513Z,98504.78
2022-08-28T00:42:11.354Z,98498.75
2022-08-28T00:44:20.229Z,98503.50
2022-08-28T00:46:24.068Z,98506.28
2022-08-28T00:48:25.658Z,98509.41
2022-08-28T00:51:00.343Z,98508.09
2022-08-28T00:53:02.715Z,98500.44
2022-08-28T00:55:10.365Z,98507.16
2022-08-28T00:57:18.776Z,98499.16
2022-08-28T00:59:23.615Z,98508.66
2022-08-28T01:01:25.459Z,98502.59
2022-08-28T01:03:27.574Z,98502.94
2022-08-28T01:05:29.964Z,98507.19
2022-08-28T01:07:31.829Z,98506.72
2022-08-28T01:09:35.316Z,98508.69
2022-08-28T01:11:41.648Z,98509.03
2022-08-28T01:13:46.988Z,98502.66
2022-08-28T01:15:51.409Z,98508.88
2022-08-28T01:17:57.000Z,98509.22
2022-08-28T01:20:04.993Z,98509.59
2022-08-28T01:22:12.478Z,98506.28
2022-08-28T01:24:18.137Z,98510.56
2022-08-28T01:26:23.340Z,98506.16
2022-08-28T01:28:24.806Z,98507.31
2022-08-28T01:30:26.986Z,98508.47
2022-08-28T01:32:33.804Z,98510.72
2022-08-28T01:34:35.712Z,98514.69
2022-08-28T01:36:38.614Z,98507.47
2022-08-28T01:38:42.937Z,98507.47
2022-08-28T01:40:48.189Z,98503.75
2022-08-28T01:42:50.876Z,98508.13
2022-08-28T01:44:54.250Z,98512.91
2022-08-28T01:46:58.436Z,98504.06
2022-08-28T01:49:00.397Z,98514.72
2022-08-28T01:51:03.987Z,98513.09
2022-08-28T01:53:07.251Z,98509.50
2022-08-28T01:55:14.310Z,98503.47
2022-08-28T01:57:15.912Z,98501.00
2022-08-28T01:59:19.030Z,98508.50
2022-08-28T02:01:22.021Z,98508.50
2022-08-28T02:03:23.758Z,98514.06
2022-08-28T02:05:28.361Z,98514.44
2022-08-28T02:07:29.961Z,98515.56
2022-08-28T02:09:32.021Z,98515.91
2022-08-28T02:11:34.281Z,98517.03
2022-08-28T02:13:37.915Z,98515.44
2022-08-28T02:15:41.394Z,98514.94
2022-08-28T02:17:43.060Z,98516.09
2022-08-28T02:19:44.886Z,98522.78
2022-08-28T02:21:46.686Z,98519.19
2022-08-28T02:23:48.363Z,98520.69
2022-08-28T02:25:50.074Z,98525.44
2022-08-28T02:27:53.180Z,98524.16
2022-08-28T02:29:55.561Z,98525.75
2022-08-28T02:31:57.520Z,98521.38
2022-08-28T02:33:59.043Z,98528.53
2022-08-28T02:36:00.863Z,98521.69
2022-08-28T02:38:04.379Z,98518.91
2022-08-28T02:40:06.660Z,98522.84
2022-08-28T02:42:08.251Z,98530.03
2022-08-28T02:44:10.148Z,98523.63
2022-08-28T02:46:12.155Z,98522.03
2022-08-28T02:48:17.004Z,98524.81
2022-08-28T02:50:19.846Z,98523.63
2022-08-28T02:52:22.570Z,98525.13
2022-08-28T02:54:26.444Z,98511.22
2022-08-28T02:56:28.338Z,98518.78
2022-08-28T02:58:32.192Z,98517.94
2022-08-28T03:00:34.007Z,98524.66
2022-08-28T03:02:36.657Z,98527.44
2022-08-28T03:04:38.452Z,98519.44
2022-08-28T03:06:40.069Z,98518.59
2022-08-28T03:08:43.097Z,98516.66
2022-08-28T03:10:44.724Z,98520.25
2022-08-28T03:12:48.180Z,98524.16
2022-08-28T03:15:02.580Z,98519.75
2022-08-28T03:17:04.656Z,98512.22
2022-08-28T03:19:08.217Z,98516.97
2022-08-28T03:21:10.633Z,98514.19
2022-08-28T03:23:28.491Z,98520.91
2022-08-28T03:25:30.063Z,98520.56
2022-08-28T03:27:31.713Z,98517.78
2022-08-28T03:29:35.266Z,98528.09
2022-08-28T03:31:39.057Z,98522.53
2022-08-28T03:33:42.914Z,98526.47
2022-08-28T03:35:44.741Z,98514.53
2022-08-28T03:37:46.681Z,98520.09
2022-08-28T03:39:48.422Z,98524.81
2022-08-28T03:41:50.026Z,98521.22
2022-08-28T03:43:52.293Z,98530.38
2022-08-28T03:46:00.748Z,98524.00
2022-08-28T03:48:03.921Z,98527.13
2022-08-28T03:50:08.128Z,98521.56
2022-08-28T03:52:12.432Z,98522.38
2022-08-28T03:54:14.072Z,98525.50
2022-08-28T03:56:28.872Z,98526.31
2022-08-28T03:58:30.713Z,98533.03
2022-08-28T04:00:32.396Z,98530.25
2022-08-28T04:02:34.218Z,98529.44
2022-08-28T04:04:35.887Z,98534.16
2022-08-28T04:06:37.869Z,98527.78
2022-08-28T04:08:39.472Z,98532.22
2022-08-28T04:10:41.322Z,98530.91
2022-08-28T04:12:44.480Z,98542.84
2022-08-28T04:14:46.105Z,98547.59
2022-08-28T04:16:49.503Z,98542.84
2022-08-28T04:18:51.412Z,98534.81
2022-08-28T04:21:08.043Z,98534.00
2022-08-28T04:23:10.168Z,98537.13
2022-08-28T04:25:11.924Z,98545.13
2022-08-28T04:27:15.143Z,98540.25
2022-08-28T04:29:16.869Z,98553.00
2022-08-28T04:31:19.143Z,98545.47
2022-08-28T04:33:34.910Z,98543.50
2022-08-28T04:35:36.478Z,98548.72
2022-08-28T04:37:39.238Z,98547.13
2022-08-28T04:39:40.862Z,98550.22
2022-08-28T04:41:42.629Z,98554.94
2022-08-28T04:43:44.521Z,98552.16
2022-08-28T04:45:46.184Z,98560.03
2022-08-28T04:47:48.288Z,98563.63
2022-08-28T04:49:50.153Z,98560.84
2022-08-28T04:51:51.864Z,98553.66
2022-08-28T04:53:53.653Z,98558.41
2022-08-28T04:55:58.854Z,98556.41
2022-08-28T04:58:01.025Z,98559.72
2022-08-28T05:00:03.907Z,98564.44
2022-08-28T05:02:05.700Z,98560.03
2022-08-28T05:04:07.369Z,98564.75
2022-08-28T05:06:09.069Z,98565.59
2022-08-28T05:08:12.440Z,98560.03
2022-08-28T05:10:15.105Z,98566.75
2022-08-28T05:12:19.737Z,98568.38
2022-08-28T05:14:21.890Z,98566.75
2022-08-28T05:16:23.936Z,98564.28
2022-08-28T05:18:25.785Z,98558.72
2022-08-28T05:20:35.370Z,98567.88
2022-08-28T05:22:36.989Z,98565.09
2022-08-28T05:24:40.070Z,98565.09
2022-08-28T05:26:42.089Z,98575.09
2022-08-28T05:28:43.856Z,98572.31
2022-08-28T05:30:47.955Z,98571.50
2022-08-28T05:32:49.566Z,98575.09
2022-08-28T05:34:51.198Z,98573.44
2022-08-28T05:36:52.786Z,98569.53
2022-08-28T05:38:58.514Z,98577.03
2022-08-28T05:41:01.192Z,98578.19
2022-08-28T05:43:03.734Z,98573.44
2022-08-28T05:45:08.759Z,98587.34
2022-08-28T05:47:10.718Z,98585.38
2022-08-28T05:49:13.503Z,98588.47
2022-08-28T05:51:18.424Z,98590.94
2022-08-28T05:53:21.130Z,98597.31
2022-08-28T05:55:23.204Z,98600.09
2022-08-28T05:57:24.765Z,98600.91
2022-08-28T05:59:26.645Z,98601.72
2022-08-28T06:01:34.675Z,98598.94
2022-08-28T06:03:39.782Z,98600.59
2022-08-28T06:05:41.810Z,98601.41
2022-08-28T06:07:43.477Z,98603.84
2022-08-28T06:09:48.033Z,98600.25
2022-08-28T06:11:50.286Z,98605.50
2022-08-28T06:13:54.830Z,98599.94
2022-08-28T06:15:56.872Z,98604.03
2022-08-28T06:18:00.955Z,98607.59
2022-08-28T06:20:02.718Z,98603.69
2022-08-28T06:22:12.092Z,98608.09
2022-08-28T06:24:17.761Z,98605.81
2022-08-28T06:26:19.472Z,98605.81
2022-08-28T06:28:23.991Z,98613.78
2022-08-28T06:30:25.541Z,98608.25
2022-08-28T06:32:27.073Z,98611.50
2022-08-28T06:34:29.212Z,98612.31
2022-08-28T06:36:37.645Z,98616.25
2022-08-28T06:38:39.189Z,98615.91
2022-08-28T06:40:46.277Z,98619.19
2022-08-28T06:42:47.840Z,98624.09
2022-08-28T06:44:50.557Z,98622.97
2022-08-28T06:46:55.945Z,98626.22
2022-08-28T06:48:57.688Z,98626.34
2022-08-28T06:50:59.868Z,98628.00
2022-08-28T06:53:01.691Z,98633.22
2022-08-28T06:55:03.464Z,98630.94
2022-08-28T06:57:05.425Z,98631.44
2022-08-28T06:59:08.291Z,98634.34
2022-08-28T07:01:29.232Z,98633.22
2022-08-28T07:03:31.755Z,98637.28
2022-08-28T07:05:34.249Z,98639.06
2022-08-28T07:07:36.358Z,98635.63
2022-08-28T07:09:43.412Z,98641.00
2022-08-28T07:11:46.738Z,98630.22
2022-08-28T07:13:49.138Z,98637.72
2022-08-28T07:15:51.360Z,98641.28
2022-08-28T07:17:52.865Z,98632.88
2022-08-28T07:19:54.504Z,98634.00
2022-08-28T07:21:56.156Z,98630.84
2022-08-28T07:23:58.042Z,98631.13
2022-08-28T07:26:08.628Z,98629.13
2022-08-28T07:28:10.331Z,98630.25
2022-08-28T07:30:13.505Z,98630.88
2022-08-28T07:32:17.244Z,98639.16
2022-08-28T07:34:22.378Z,98637.44
2022-08-28T07:36:30.100Z,98633.31
2022-08-28T07:38:31.783Z,98642.63
2022-08-28T07:40:33.403Z,98638.50
2022-08-28T07:42:53.888Z,98642.22
2022-08-28T07:44:57.234Z,98653.16
2022-08-28T07:47:04.183Z,98654.13
2022-08-28T07:49:08.552Z,98651.81
2022-08-28T07:51:10.281Z,98654.03
2022-08-28T07:53:11.785Z,98651.88
2022-08-28T07:55:13.432Z,98643.78
2022-08-28T07:57:16.978Z,98651.41
2022-08-28T07:59:19.590Z,98650.16
2022-08-28T08:01:21.163Z,98654.16
2022-08-28T08:03:31.413Z,98668.47
2022-08-28T08:05:33.104Z,98670.03
2022-08-28T08:07:37.986Z,98660.72
2022-08-28T08:09:44.533Z,98662.63
2022-08-28T08:11:47.499Z,98660.09
2022-08-28T08:13:51.049Z,98665.94
2022-08-28T08:15:53.093Z,98663.72
2022-08-28T08:17:54.668Z,98657.56
2022-08-28T08:19:56.394Z,98666.19
2022-08-28T08:21:58.011Z,98671.53
2022-08-28T08:23:59.543Z,98670.84
2022-08-28T08:26:05.192Z,98673.75
2022-08-28T08:28:07.313Z,98670.59
2022-08-28T08:30:09.841Z,98671.06
2022-08-28T08:32:11.837Z,98672.34
2022-08-28T08:34:13.454Z,98668.03
2022-08-28T08:36:17.794Z,98671.78
2022-08-28T08:38:19.520Z,98673.53
2022-08-28T08:40:21.933Z,98677.25
2022-08-28T08:42:38.335Z,98684.59
2022-08-28T08:44:43.005Z,98683.91
2022-08-28T08:47:15.008Z,98685.53
2022-08-28T08:49:22.576Z,98691.59
2022-08-28T08:51:39.488Z,98688.44
2022-08-28T08:53:53.148Z,98704.50
2022-08-28T08:55:59.957Z,98704.16
2022-08-28T08:58:11.540Z,98697.41
2022-08-28T09:00:16.049Z,98694.59
2022-08-28T09:02:31.168Z,98689.00
2022-08-28T09:04:42.956Z,98697.41
2022-08-28T09:06:51.090Z,98695.78
2022-08-28T09:09:23.977Z,98695.31
2022-08-28T09:11:45.642Z,98696.47
2022-08-28T09:14:08.089Z,98694.84
2022-08-28T09:16:26.851Z,98700.44
2022-08-28T09:18:34.054Z,98688.44
2022-08-28T09:20:35.652Z,98693.22
2022-08-28T09:22:38.493Z,98691.72
2022-08-28T09:24:41.247Z,98696.56
2022-08-28T09:26:43.185Z,98702.28
2022-08-28T09:29:02.177Z,98701.59
2022-08-28T09:31:20.246Z,98702.88
2022-08-28T09:33:35.383Z,98703.78
2022-08-28T09:35:40.497Z,98702.72
2022-08-28T09:37:44.074Z,98697.72
2022-08-28T09:39:49.052Z,98696.31
2022-08-28T09:42:32.638Z,98694.09
2022-08-28T09:45:11.070Z,98700.22
2022-08-28T09:47:46.019Z,98703.75
2022-08-28T09:49:52.242Z,98704.78
2022-08-28T09:51:55.635Z,98696.13
2022-08-28T09:54:08.993Z,98695.88
2022-08-28T09:56:33.536Z,98699.69
2022-08-28T09:58:54.222Z,98696.28
2022-08-28T10:01:10.653Z,98702.91
2022-08-28T10:03:26.095Z,98694.59
2022-08-28T10:05:53.781Z,98699.94
2022-08-28T10:08:02.880Z,98695.25
2022-08-28T10:10:17.242Z,98699.31
2022-08-28T10:12:31.646Z,98695.59
2022-08-28T10:15:15.654Z,98699.75
2022-08-28T10:17:49.387Z,98701.66
2022-08-28T10:19:59.213Z,98695.97
2022-08-28T10:22:22.094Z,98694.28
2022-08-28T10:24:31.262Z,98694.63
2022-08-28T10:27:11.709Z,98695.47
2022-08-28T10:29:29.982Z,98696.34
2022-08-28T10:32:26.446Z,98685.63
2022-08-28T10:34:34.009Z,98685.66
2022-08-28T10:36:59.261Z,98688.06
2022-08-28T10:39:37.981Z,98690.47
2022-08-28T10:41:48.989Z,98687.75
2022-08-28T10:43:58.365Z,98685.28
2022-08-28T10:46:13.216Z,98682.38
2022-08-28T10:48:44.287Z,98688.28
2022-08-28T10:50:52.748Z,98680.03
2022-08-28T10:53:17.131Z,98681.72
2022-08-28T10:55:26.542Z,98681.84
2022-08-28T10:57:52.043Z,98685.50
2022-08-28T10:59:54.218Z,98688.38
2022-08-28T11:01:56.518Z,98687.63
2022-08-28T11:04:01.605Z,98682.88
2022-08-28T11:06:12.609Z,98688.56
2022-08-28T11:08:34.069Z,98690.16
2022-08-28T11:10:35.590Z,98699.50
2022-08-28T11:12:43.244Z,98698.69
2022-08-28T11:14:48.531Z,98696.28
2022-08-28T11:16:51.624Z,98689.84
2022-08-28T11:19:08.374Z,98696.28
2022-08-28T11:21:20.200Z,98696.72
2022-08-28T11:23:31.405Z,98695.63
2022-08-28T11:25:48.110Z,98707.69
2022-08-28T11:28:22.482Z,98694.81
2022-08-28T11:30:35.576Z,98704.09
2022-08-28T11:32:41.523Z,98696.44
2022-08-28T11:34:58.958Z,98697.25
2022-08-28T11:37:02.574Z,98698.88
2022-08-28T11:39:13.145Z,98699.69
2022-08-28T11:41:22.722Z,98693.75
2022-08-28T11:43:24.222Z,98698.25
2022-08-28T11:45:46.831Z,98695.94
2022-08-28T11:47:52.829Z,98696.16
2022-08-28T11:49:54.489Z,98694.28
2022-08-28T11:52:18.241Z,98693.66
2022-08-28T11:54:50.204Z,98690.22
2022-08-28T11:57:16.129Z,98693.59
2022-08-28T11:59:39.374Z,98698.50
2022-08-28T12:01:41.175Z,98687.75
2022-08-28T12:03:59.341Z,98692.16
2022-08-28T12:06:01.604Z,98693.06
2022-08-28T12:08:03.472Z,98689.94
2022-08-28T12:10:30.771Z,98691.16
2022-08-28T12:12:44.416Z,98692.44
2022-08-28T12:14:47.700Z,98692.50
2022-08-28T12:16:58.378Z,98683.75
2022-08-28T12:19:01.781Z,98686.22
2022-08-28T12:21:07.367Z,98684.75
2022-08-28T12:23:31.755Z,98675.19
2022-08-28T12:25:41.825Z,98672.81
2022-08-28T12:27:45.365Z,98671.69
2022-08-28T12:30:01.007Z,98666.13
2022-08-28T12:32:33.482Z,98672.63
2022-08-28T12:34:38.004Z,98670.66
2022-08-28T12:36:39.660Z,98673.09
2022-08-28T12:38:50.209Z,98675.50
2022-08-28T12:40:53.424Z,98673.53
2022-08-28T12:43:00.127Z,98666.72
2022-08-28T12:45:08.956Z,98665.94
2022-08-28T12:47:16.443Z,98672.03
2022-08-28T12:49:34.022Z,98658.72
2022-08-28T12:51:37.744Z,98668.06
2022-08-28T12:53:43.796Z,98656.78
2022-08-28T12:55:46.546Z,98659.19
2022-08-28T12:57:49.382Z,98660.03
2022-08-28T12:59:53.814Z,98665.66
2022-08-28T13:02:09.082Z,98674.94
2022-08-28T13:04:41.952Z,98664.41
2022-08-28T13:06:44.115Z,98664.78
2022-08-28T13:08:48.860Z,98665.53
2022-08-28T13:10:51.879Z,98668.28
2022-08-28T13:13:00.792Z,98668.25
2022-08-28T13:15:06.903Z,98666.56
2022-08-28T13:17:09.896Z,98668.94
2022-08-28T13:19:28.234Z,98673.69
2022-08-28T13:21:38.617Z,98663.13
2022-08-28T13:23:40.414Z,98667.50
2022-08-28T13:25:42.060Z,98661.34
2022-08-28T13:27:44.462Z,98662.50
2022-08-28T13:30:00.977Z,98658.75
2022-08-28T13:32:06.913Z,98659.50
2022-08-28T13:34:12.150Z,98663.06
2022-08-28T13:36:22.573Z,98667.44
2022-08-28T13:38:27.711Z,98662.53
2022-08-28T13:43:00.995Z,98663.16
2022-08-28T13:45:02.902Z,98660.25
2022-08-28T13:47:09.010Z,98662.22
2022-08-28T13:49:10.645Z,98661.38
2022-08-28T13:51:20.771Z,98660.94
2022-08-28T13:53:23.094Z,98659.66
2022-08-28T13:55:24.921Z,98667.28
2022-08-28T13:57:28.115Z,98663.56
2022-08-28T13:59:29.926Z,98662.31
2022-08-28T14:01:51.921Z,98651.34
2022-08-28T14:03:53.542Z,98657.75
2022-08-28T14:05:56.085Z,98654.44
2022-08-28T14:07:57.829Z,98649.16
2022-08-28T14:10:00.684Z,98657.53
2022-08-28T14:12:03.310Z,98655.50
2022-08-28T14:14:04.965Z,98656.63
2022-08-28T14:16:08.122Z,98657.41
2022-08-28T14:18:09.706Z,98659.78
2022-08-28T14:20:14.087Z,98653.31
2022-08-28T14:22:16.222Z,98658.09
2022-08-28T14:24:19.050Z,98655.63
2022-08-28T14:26:21.329Z,98658.41
2022-08-28T14:28:25.236Z,98655.09
2022-08-28T14:30:27.055Z,98661.06
2022-08-28T14:32:31.236Z,98653.34
2022-08-28T14:34:34.967Z,98654.09
2022-08-28T14:36:37.203Z,98646.81
2022-08-28T14:38:38.852Z,98650.38
2022-08-28T14:40:43.289Z,98647.13
2022-08-28T14:42:44.848Z,98651.50
2022-08-28T14:44:46.475Z,98641.00
2022-08-28T14:46:57.372Z,98651.41
2022-08-28T14:49:03.068Z,98656.97
2022-08-28T14:51:04.884Z,98644.41
2022-08-28T14:53:06.852Z,98642.34
2022-08-28T14:55:11.115Z,98641.13
2022-08-28T14:57:13.740Z,98637.06
2022-08-28T14:59:24.815Z,98646.22
2022-08-28T15:01:39.619Z,98637.69
2022-08-28T15:03:42.719Z,98639.97
2022-08-28T15:05:45.533Z,98632.28
2022-08-28T15:07:47.080Z,98636.66
2022-08-28T15:09:51.084Z,98631.72
2022-08-28T15:11:53.638Z,98627.69
2022-08-28T15:13:58.337Z,98637.66
2022-08-28T15:16:06.493Z,98628.34
2022-08-28T15:18:20.656Z,98630.28
2022-08-28T15:20:22.300Z,98634.28
2022-08-28T15:22:27.319Z,98631.03
2022-08-28T15:24:33.033Z,98636.22
2022-08-28T15:26:34.756Z,98634.53
2022-08-28T15:28:37.804Z,98634.47
2022-08-28T15:30:39.751Z,98625.59
2022-08-28T15:32:43.030Z,98631.56
2022-08-28T15:34:45.571Z,98629.88
2022-08-28T15:36:54.730Z,98635.50
2022-08-28T15:39:15.504Z,98628.28
2022-08-28T15:41:26.080Z,98631.84
2022-08-28T15:43:27.842Z,98632.56
2022-08-28T15:45:29.448Z,98629.34
2022-08-28T15:47:31.202Z,98630.84
2022-08-28T15:49:36.102Z,98634.00
2022-08-28T15:51:41.481Z,98627.16
2022-08-28T15:53:44.698Z,98621.91
2022-08-28T15:55:46.730Z,98631.50
2022-08-28T15:57:48.478Z,98629.09
2022-08-28T15:59:50.943Z,98629.47
2022-08-28T16:01:57.586Z,98622.22
2022-08-28T16:03:59.577Z,98631.38
2022-08-28T16:06:04.160Z,98627.69
2022-08-28T16:08:05.783Z,98628.06
2022-08-28T16:10:08.892Z,98623.19
2022-08-28T16:12:10.637Z,98628.00
2022-08-28T16:14:15.097Z,98634.34
2022-08-28T16:16:20.281Z,98625.50
2022-08-28T16:18:25.893Z,98633.47
2022-08-28T16:20:27.785Z,98626.22
2022-08-28T16:22:29.447Z,98631.41
2022-08-28T16:24:31.190Z,98626.53
2022-08-28T16:26:32.808Z,98636.50
2022-08-28T16:28:36.362Z,98628.47
2022-08-28T16:30:43.842Z,98627.56
2022-08-28T16:32:46.870Z,98627.56
2022-08-28T16:34:50.477Z,98628.28
2022-08-28T16:36:52.062Z,98621.88
2022-08-28T16:39:01.735Z,98613.81
2022-08-28T16:41:20.370Z,98612.94
2022-08-28T16:43:24.248Z,98613.66
2022-08-28T16:45:26.205Z,98619.97
2022-08-28T16:47:31.776Z,98618.38
2022-08-28T16:49:33.617Z,98622.34
2022-08-28T16:51:35.369Z,98616.66
2022-08-28T16:53:37.117Z,98616.59
2022-08-28T16:55:40.568Z,98618.56
2022-08-28T16:57:42.486Z,98613.34
2022-08-28T16:59:44.905Z,98615.69
2022-08-28T17:01:53.067Z,98612.81
2022-08-28T17:03:56.340Z,98615.97
2022-08-28T17:06:03.123Z,98612.38
2022-08-28T17:08:04.676Z,98619.53
2022-08-28T17:10:08.253Z,98617.91
2022-08-28T17:12:09.858Z,98625.06
2022-08-28T17:14:13.148Z,98620.16
2022-08-28T17:16:15.240Z,98621.72
2022-08-28T17:18:18.142Z,98615.66
2022-08-28T17:20:38.731Z,98616.00
2022-08-28T17:22:40.419Z,98609.53
2022-08-28T17:24:41.928Z,98623.09
2022-08-28T17:26:44.497Z,98625.47
2022-08-28T17:28:47.536Z,98624.22
2022-08-28T17:30:58.747Z,98618.13
2022-08-28T17:33:02.717Z,98622.47
2022-08-28T17:35:05.511Z,98617.63
2022-08-28T17:37:07.357Z,98624.31
2022-08-28T17:39:13.878Z,98620.56
2022-08-28T17:41:24.830Z,98623.28
2022-08-28T17:43:26.592Z,98618.34
2022-08-28T17:45:28.539Z,98627.91
2022-08-28T17:47:30.861Z,98621.41
2022-08-28T17:49:35.048Z,98625.38
2022-08-28T17:51:43.260Z,98623.31
2022-08-28T17:53:51.676Z,98629.66
2022-08-28T17:55:53.360Z,98632.34
2022-08-28T17:57:55.430Z,98635.09
2022-08-28T18:00:05.318Z,98643.00
2022-08-28T18:02:16.789Z,98634.16
2022-08-28T18:04:24.405Z,98634.88
2022-08-28T18:06:29.474Z,98632.81
2022-08-28T18:08:31.248Z,98643.56
2022-08-28T18:10:35.179Z,98645.09
2022-08-28T18:12:37.644Z,98645.00
2022-08-28T18:14:42.450Z,98642.09
2022-08-28T18:16:44.325Z,98653.22
2022-08-28T18:18:45.828Z,98655.09
2022-08-28T18:20:47.649Z,98654.19
2022-08-28T18:22:49.681Z,98654.88
2022-08-28T18:24:54.937Z,98648.03
2022-08-28T18:26:57.225Z,98665.09
2022-08-28T18:28:59.415Z,98668.59
2022-08-28T18:31:02.634Z,98666.88
2022-08-28T18:33:04.494Z,98676.34
2022-08-28T18:35:07.157Z,98674.63
2022-08-28T18:37:08.682Z,98675.34
2022-08-28T18:39:10.636Z,98680.00
2022-08-28T18:41:13.157Z,98682.22
2022-08-28T18:43:14.833Z,98684.13
2022-08-28T18:45:16.876Z,98684.38
2022-08-28T18:47:20.436Z,98679.47
2022-08-28T18:49:24.372Z,98687.66
2022-08-28T18:51:30.829Z,98680.66
2022-08-28T18:53:32.334Z,98692.44
2022-08-28T18:55:34.820Z,98694.34
2022-08-28T18:57:36.504Z,98695.38
2022-08-28T18:59:38.761Z,98702.84
2022-08-28T19:01:43.369Z,98697.50
2022-08-28T19:03:45.357Z,98703.34
2022-08-28T19:05:47.061Z,98701.94
2022-08-28T19:07:51.776Z,98704.97
2022-08-28T19:09:59.323Z,98706.84
2022-08-28T19:12:04.463Z,98711.84
2022-08-28T19:14:06.742Z,98710.09
2022-08-28T19:16:09.436Z,98709.84
2022-08-28T19:18:11.416Z,98706.47
2022-08-28T19:20:17.652Z,98719.53
2022-08-28T19:22:19.241Z,98719.75
2022-08-28T19:24:22.364Z,98713.56
2022-08-28T19:26:25.681Z,98714.63
2022-08-28T19:28:27.503Z,98720.75
2022-08-28T19:30:33.173Z,98725.75
2022-08-28T19:32:37.336Z,98725.66
2022-08-28T19:34:39.053Z,98725.03
2022-08-28T19:36:42.016Z,98722.47
2022-08-28T19:38:43.775Z,98725.13
2022-08-28T19:40:48.349Z,98734.06
2022-08-28T19:42:50.456Z,98735.41
2022-08-28T19:44:54.521Z,98730.88
2022-08-28T19:47:02.625Z,98730.25
2022-08-28T19:49:09.327Z,98729.31
2022-08-28T19:51:17.570Z,98738.75
2022-08-28T19:53:24.572Z,98740.09
2022-08-28T19:55:27.850Z,98748.69
2022-08-28T19:57:29.522Z,98747.25
2022-08-28T19:59:31.815Z,98749.91
2022-08-28T20:01:37.826Z,98751.28
2022-08-28T20:03:45.145Z,98755.09
2022-08-28T20:05:48.926Z,98762.84
2022-08-28T20:07:50.676Z,98765.81
2022-08-28T20:09:55.550Z,98772.44
2022-08-28T20:11:59.739Z,98768.97
2022-08-28T20:14:04.403Z,98775.22
2022-08-28T20:16:07.081Z,98769.84
2022-08-28T20:18:09.008Z,98780.06
2022-08-28T20:20:11.449Z,98778.28
2022-08-28T20:22:14.352Z,98774.88
2022-08-28T20:26:24.988Z,98780.16
2022-08-28T20:28:32.823Z,98780.34
2022-08-28T20:30:34.663Z,98781.03
2022-08-28T20:32:43.618Z,98791.19
2022-08-28T20:34:45.231Z,98781.88
2022-08-28T20:36:53.400Z,98792.84
2022-08-28T20:38:55.093Z,98792.72
2022-08-28T20:41:13.285Z,98787.34
2022-08-28T20:43:15.660Z,98794.41
2022-08-28T20:45:18.570Z,98797.84
2022-08-28T20:47:20.340Z,98786.50
2022-08-28T20:49:29.339Z,98791.13
2022-08-28T20:51:51.979Z,98786.56
2022-08-28T20:53:53.534Z,98790.00
2022-08-28T20:55:56.511Z,98786.28
2022-08-28T20:57:58.044Z,98790.03
2022-08-28T21:00:03.488Z,98794.28
2022-08-28T21:02:14.642Z,98795.78
2022-08-28T21:04:17.308Z,98802.03
2022-08-28T21:06:19.109Z,98801.03
2022-08-28T21:08:20.730Z,98801.69
2022-08-28T21:10:22.440Z,98810.75
2022-08-28T21:12:24.748Z,98804.66
2022-08-28T21:14:27.861Z,98810.91
2022-08-28T21:16:30.208Z,98815.16
2022-08-28T21:18:34.161Z,98804.22
2022-08-28T21:20:37.562Z,98807.31
2022-08-28T21:22:39.872Z,98818.28
2022-08-28T21:24:44.804Z,98815.34
2022-08-28T21:26:50.464Z,98814.38
2022-08-28T21:28:53.722Z,98822.56
2022-08-28T21:30:55.289Z,98807.13
2022-08-28T21:32:56.869Z,98813.38
2022-08-28T21:35:02.409Z,98815.63
2022-08-28T21:37:06.914Z,98807.47
2022-08-28T21:39:08.891Z,98800.94
2022-08-28T21:41:13.724Z,98815.47
2022-08-28T21:43:15.462Z,98808.94
2022-08-28T21:45:18.300Z,98807.94
2022-08-28T21:47:23.202Z,98811.38
2022-08-28T21:49:25.222Z,98812.84
2022-08-28T21:51:29.860Z,98814.66
2022-08-28T21:53:31.577Z,98814.47
2022-08-28T21:55:33.161Z,98827.06
2022-08-28T21:57:35.106Z,98828.88
2022-08-28T21:59:37.867Z,98836.22
2022-08-28T22:01:40.019Z,98830.50
2022-08-28T22:03:43.096Z,98829.19
2022-08-28T22:05:47.090Z,98832.59
2022-08-28T22:07:49.761Z,98823.28
2022-08-28T22:09:51.808Z,98836.34
2022-08-28T22:11:53.361Z,98833.91
2022-08-28T22:13:55.788Z,98841.25
2022-08-28T22:15:57.449Z,98837.16
2022-08-28T22:18:02.666Z,98839.41
2022-08-28T22:20:04.648Z,98834.50
2022-08-28T22:22:25.680Z,98839.56
2022-08-28T22:24:27.222Z,98844.94
2022-08-28T22:26:29.494Z,98847.22
2022-08-28T22:28:31.562Z,98851.78
2022-08-28T22:30:35.889Z,98854.06
2022-08-28T22:32:37.589Z,98855.53
2022-08-28T22:34:42.164Z,98851.44
2022-08-28T22:36:43.589Z,98854.84
2022-08-28T22:38:47.145Z,98850.75
2022-08-28T22:40:55.685Z,98856.94
2022-08-28T22:42:57.539Z,98855.63
2022-08-28T22:44:59.630Z,98856.28
2022-08-28T22:47:01.242Z,98851.34
2022-08-28T22:49:03.135Z,98852.81
2022-08-28T22:51:12.527Z,98862.59
2022-08-28T22:53:16.095Z,98853.28
2022-08-28T22:55:19.527Z,98842.81
2022-08-28T22:57:21.654Z,98847.03
2022-08-28T22:59:23.350Z,98847.66
2022-08-28T23:01:26.084Z,98837.72
2022-08-28T23:03:28.286Z,98843.06
2022-08-28T23:05:30.740Z,98842.09
2022-08-28T23:07:32.423Z,98848.56
2022-08-28T23:09:34.098Z,98844.47
2022-08-28T23:11:37.815Z,98851.47
2022-08-28T23:13:41.097Z,98842.94
2022-08-28T23:15:43.317Z,98855.19
2022-08-28T23:17:45.464Z,98843.91
2022-08-28T23:19:48.353Z,98857.25
2022-08-28T23:21:51.324Z,98855.16
2022-08-28T23:23:53.410Z,98863.75
2022-08-28T23:25:55.013Z,98862.44
2022-08-28T23:27:56.642Z,98861.13
2022-08-28T23:29:58.352Z,98864.53
2022-08-28T23:31:59.919Z,98862.91
2022-08-28T23:34:04.982Z,98864.34
2022-08-28T23:36:07.187Z,98858.59
2022-08-28T23:38:08.783Z,98856.44
2022-08-28T23:40:16.286Z,98863.44
2022-08-28T23:42:17.884Z,98858.22
2022-08-28T23:44:20.416Z,98864.09
2022-08-28T23:46:22.053Z,98858.34
2022-08-28T23:48:24.886Z,98865.03
2022-08-28T23:50:27.618Z,98863.41
2022-08-28T23:52:29.205Z,98861.25
2022-08-28T23:54:31.056Z,98846.56
2022-08-28T23:56:33.187Z,98858.28
2022-08-28T23:58:35.931Z,98854.69
